createdAt,value
2023-03-16T00:02:10.424Z,101756.94
2023-03-16T00:04:38.158Z,101763.75
2023-03-16T00:07:11.422Z,101754.19
2023-03-16T00:09:42.832Z,101762.72
2023-03-16T00:12:19.735Z,101768.59
2023-03-16T00:14:48.762Z,101759.91
2023-03-16T00:17:18.963Z,101761.59
2023-03-16T00:19:55.503Z,101767.47
2023-03-16T00:22:25.745Z,101766.50
2023-03-16T00:24:53.232Z,101757.03
2023-03-16T00:27:22.696Z,101768.94
2023-03-16T00:29:56.728Z,101762.91
2023-03-16T00:32:31.833Z,101764.50
2023-03-16T00:34:59.808Z,101759.28
2023-03-16T00:37:28.077Z,101762.66
2023-03-16T00:39:56.424Z,101767.81
2023-03-16T00:42:28.123Z,101762.53
2023-03-16T00:44:57.639Z,101760.72
2023-03-16T00:47:28.507Z,101766.59
2023-03-16T00:49:55.878Z,101759.69
2023-03-16T00:52:23.600Z,101761.06
2023-03-16T00:54:54.304Z,101765.41
2023-03-16T00:57:24.689Z,101761.16
2023-03-16T00:59:52.474Z,101767.19
2023-03-16T01:02:23.562Z,101763.38
2023-03-16T01:04:52.032Z,101756.34
2023-03-16T01:07:19.481Z,101759.31
2023-03-16T01:09:46.460Z,101760.91
2023-03-16T01:12:17.553Z,101758.44
2023-03-16T01:14:46.003Z,101760.09
2023-03-16T01:17:14.160Z,101766.06
2023-03-16T01:19:42.050Z,101753.03
2023-03-16T01:22:10.411Z,101762.59
2023-03-16T01:24:39.983Z,101761.72
2023-03-16T01:27:07.791Z,101760.91
2023-03-16T01:29:35.673Z,101770.31
2023-03-16T01:32:04.367Z,101756.63
2023-03-16T01:34:32.012Z,101764.31
2023-03-16T01:37:00.884Z,101759.22
2023-03-16T01:39:36.104Z,101754.88
2023-03-16T01:42:03.702Z,101749.75
2023-03-16T01:44:55.130Z,101752.31
2023-03-16T01:47:24.299Z,101754.00
2023-03-16T01:49:56.492Z,101751.44
2023-03-16T01:52:33.413Z,101747.06
2023-03-16T01:55:08.896Z,101750.53
2023-03-16T01:57:42.562Z,101744.34
2023-03-16T02:00:23.581Z,101753.03
2023-03-16T02:03:08.513Z,101746.59
2023-03-16T02:05:49.140Z,101762.44
2023-03-16T02:08:17.873Z,101764.09
2023-03-16T02:10:45.779Z,101763.22
2023-03-16T02:13:12.947Z,101763.91
2023-03-16T02:15:40.354Z,101767.34
2023-03-16T02:18:08.941Z,101769.97
2023-03-16T02:20:42.972Z,101773.38
2023-03-16T02:23:21.014Z,101765.56
2023-03-16T02:26:03.434Z,101771.53
2023-03-16T02:28:58.289Z,101776.41
2023-03-16T02:31:25.549Z,101775.69
2023-03-16T02:33:54.256Z,101782.28
2023-03-16T02:36:21.469Z,101776.97
2023-03-16T02:38:48.350Z,101778.00
2023-03-16T02:41:20.601Z,101789.13
2023-03-16T02:44:10.824Z,101779.31
2023-03-16T02:46:39.222Z,101790.63
2023-03-16T02:49:38.941Z,101799.97
2023-03-16T02:52:07.955Z,101793.84
2023-03-16T02:54:34.930Z,101792.97
2023-03-16T02:57:01.946Z,101791.13
2023-03-16T02:59:30.213Z,101789.34
2023-03-16T03:01:57.860Z,101800.25
2023-03-16T03:04:24.984Z,101796.06
2023-03-16T03:06:52.312Z,101797.66
2023-03-16T03:09:19.486Z,101802.81
2023-03-16T03:11:47.960Z,101801.94
2023-03-16T03:14:16.766Z,101806.09
2023-03-16T03:16:46.864Z,101814.72
2023-03-16T03:19:15.510Z,101809.50
2023-03-16T03:21:42.412Z,101814.63
2023-03-16T03:24:09.908Z,101806.03
2023-03-16T03:26:40.876Z,101817.09
2023-03-16T03:29:15.579Z,101822.25
2023-03-16T03:31:42.594Z,101824.75
2023-03-16T03:34:09.644Z,101835.03
2023-03-16T03:36:36.601Z,101831.59
2023-03-16T03:39:06.374Z,101835.81
2023-03-16T03:41:34.888Z,101834.94
2023-03-16T03:44:04.921Z,101839.19
2023-03-16T03:46:34.066Z,101840.91
2023-03-16T03:49:03.826Z,101841.78
2023-03-16T03:51:33.889Z,101853.75
2023-03-16T03:54:08.161Z,101846.81
2023-03-16T03:56:55.326Z,101843.38
2023-03-16T03:59:22.755Z,101852.06
2023-03-16T04:02:05.789Z,101847.72
2023-03-16T04:04:42.839Z,101842.50
2023-03-16T04:07:12.648Z,101861.38
2023-03-16T04:09:41.944Z,101858.72
2023-03-16T04:12:15.368Z,101841.91
2023-03-16T04:14:43.434Z,101859.25
2023-03-16T04:17:10.519Z,101860.16
2023-03-16T04:19:39.360Z,101865.31
2023-03-16T04:22:11.202Z,101867.94
2023-03-16T04:24:38.192Z,101865.31
2023-03-16T04:27:05.222Z,101864.31
2023-03-16T04:29:32.882Z,101871.94
2023-03-16T04:31:59.795Z,101867.59
2023-03-16T04:34:28.704Z,101866.72
2023-03-16T04:36:59.888Z,101858.03
2023-03-16T04:39:27.086Z,101863.25
2023-03-16T04:41:54.798Z,101870.88
2023-03-16T04:44:26.130Z,101867.41
2023-03-16T04:46:53.596Z,101870.78
2023-03-16T04:49:22.368Z,101869.75
2023-03-16T04:51:49.290Z,101878.34
2023-03-16T04:54:19.247Z,101879.06
2023-03-16T04:56:46.215Z,101888.91
2023-03-16T04:59:33.721Z,101877.97
2023-03-16T05:02:08.209Z,101886.50
2023-03-16T05:04:35.705Z,101888.19
2023-03-16T05:07:03.289Z,101891.53
2023-03-16T05:09:34.894Z,101887.19
2023-03-16T05:12:01.877Z,101892.25
2023-03-16T05:14:29.945Z,101889.59
2023-03-16T05:17:14.864Z,101893.88
2023-03-16T05:19:43.209Z,101891.09
2023-03-16T05:22:10.663Z,101894.56
2023-03-16T05:24:46.989Z,101895.28
2023-03-16T05:27:14.111Z,101900.31
2023-03-16T05:29:45.915Z,101903.66
2023-03-16T05:32:13.684Z,101897.66
2023-03-16T05:34:43.325Z,101895.00
2023-03-16T05:37:11.013Z,101900.94
2023-03-16T05:39:37.917Z,101881.53
2023-03-16T05:42:06.018Z,101904.19
2023-03-16T05:44:41.474Z,101898.09
2023-03-16T05:47:08.622Z,101905.91
2023-03-16T05:49:40.335Z,101913.59
2023-03-16T05:52:12.988Z,101917.94
2023-03-16T05:54:39.968Z,101924.88
2023-03-16T05:57:09.638Z,101911.91
2023-03-16T05:59:37.456Z,101920.78
2023-03-16T06:02:05.222Z,101929.56
2023-03-16T06:04:32.733Z,101930.53
2023-03-16T06:07:00.329Z,101935.84
2023-03-16T06:09:29.231Z,101940.34
2023-03-16T06:11:56.195Z,101937.06
2023-03-16T06:14:23.962Z,101947.63
2023-03-16T06:16:52.831Z,101946.16
2023-03-16T06:19:20.262Z,101941.78
2023-03-16T06:21:51.744Z,101950.13
2023-03-16T06:24:18.918Z,101941.59
2023-03-16T06:26:45.818Z,101955.00
2023-03-16T06:29:13.677Z,101963.06
2023-03-16T06:31:41.824Z,101965.06
2023-03-16T06:34:08.981Z,101970.59
2023-03-16T06:36:38.848Z,101970.03
2023-03-16T06:39:09.512Z,101972.78
2023-03-16T06:41:42.736Z,101967.19
2023-03-16T06:44:11.554Z,101968.41
2023-03-16T06:46:44.011Z,101972.84
2023-03-16T06:49:11.311Z,101975.03
2023-03-16T06:51:38.831Z,101971.13
2023-03-16T06:54:05.687Z,101974.84
2023-03-16T06:56:36.835Z,101978.63
2023-03-16T06:59:04.197Z,101976.22
2023-03-16T07:01:31.759Z,101964.84
2023-03-16T07:03:58.816Z,101993.13
2023-03-16T07:06:29.984Z,102004.81
2023-03-16T07:08:56.868Z,102002.59
2023-03-16T07:11:24.592Z,102010.66
2023-03-16T07:13:51.781Z,102009.16
2023-03-16T07:16:20.409Z,102014.06
2023-03-16T07:18:48.146Z,102021.31
2023-03-16T07:21:16.885Z,102019.13
2023-03-16T07:23:45.254Z,102014.13
2023-03-16T07:26:14.931Z,102028.41
2023-03-16T07:28:50.680Z,102019.31
2023-03-16T07:31:17.632Z,102029.03
2023-03-16T07:33:45.785Z,102040.56
2023-03-16T07:36:18.483Z,102040.72
2023-03-16T07:38:51.598Z,102032.41
2023-03-16T07:41:18.623Z,102036.91
2023-03-16T07:43:46.177Z,102036.28
2023-03-16T07:46:15.279Z,102026.59
2023-03-16T07:48:44.732Z,102048.84
2023-03-16T07:51:13.974Z,102042.03
2023-03-16T07:53:42.276Z,102040.91
2023-03-16T07:56:21.428Z,102037.81
2023-03-16T07:58:52.139Z,102040.78
2023-03-16T08:01:19.108Z,102036.78
2023-03-16T08:03:47.065Z,102040.66
2023-03-16T08:06:14.058Z,102053.06
2023-03-16T08:08:41.041Z,102053.25
2023-03-16T08:11:11.281Z,102056.28
2023-03-16T08:13:47.275Z,102049.97
2023-03-16T08:16:15.239Z,102058.28
2023-03-16T08:18:44.610Z,102053.66
2023-03-16T08:21:11.596Z,102050.78
2023-03-16T08:23:38.554Z,102053.94
2023-03-16T08:26:15.218Z,102034.97
2023-03-16T08:28:42.341Z,102053.84
2023-03-16T08:31:16.001Z,102050.75
2023-03-16T08:33:52.168Z,102066.53
2023-03-16T08:36:22.846Z,102052.47
2023-03-16T08:39:06.207Z,102067.31
2023-03-16T08:41:38.029Z,102073.53
2023-03-16T08:44:10.769Z,102072.78
2023-03-16T08:46:37.997Z,102072.66
2023-03-16T08:49:06.732Z,102072.69
2023-03-16T08:51:34.275Z,102073.41
2023-03-16T08:54:01.151Z,102084.97
2023-03-16T08:56:30.421Z,102087.81
2023-03-16T08:58:57.522Z,102090.00
2023-03-16T09:01:25.760Z,102087.81
2023-03-16T09:03:52.903Z,102087.19
2023-03-16T09:06:19.995Z,102096.94
2023-03-16T09:08:47.735Z,102097.28
2023-03-16T09:11:18.801Z,102095.78
2023-03-16T09:13:47.269Z,102098.88
2023-03-16T09:16:15.673Z,102097.53
2023-03-16T09:18:43.397Z,102097.00
2023-03-16T09:21:15.415Z,102109.38
2023-03-16T09:23:43.042Z,102100.16
2023-03-16T09:26:12.632Z,102098.56
2023-03-16T09:28:42.168Z,102099.06
2023-03-16T09:31:16.856Z,102105.44
2023-03-16T09:33:43.805Z,102101.34
2023-03-16T09:36:14.142Z,102098.16
2023-03-16T09:38:43.841Z,102102.78
2023-03-16T09:41:38.271Z,102091.66
2023-03-16T09:44:21.988Z,102099.91
2023-03-16T09:46:50.805Z,102098.38
2023-03-16T09:49:21.080Z,102106.34
2023-03-16T09:52:20.861Z,102104.72
2023-03-16T09:55:05.311Z,102092.91
2023-03-16T09:57:39.688Z,102101.66
2023-03-16T10:00:21.925Z,102106.16
2023-03-16T10:03:19.788Z,102096.81
2023-03-16T10:05:52.400Z,102097.81
2023-03-16T10:08:25.976Z,102093.59
2023-03-16T10:11:22.178Z,102095.44
2023-03-16T10:14:11.545Z,102093.09
2023-03-16T10:16:47.628Z,102100.19
2023-03-16T10:19:25.914Z,102100.44
2023-03-16T10:21:56.249Z,102091.13
2023-03-16T10:24:53.244Z,102094.75
2023-03-16T10:27:31.543Z,102097.56
2023-03-16T10:30:01.225Z,102103.78
2023-03-16T10:32:34.600Z,102098.00
2023-03-16T10:35:44.045Z,102094.78
2023-03-16T10:38:27.793Z,102094.09
2023-03-16T10:40:54.929Z,102096.81
2023-03-16T10:43:22.724Z,102115.25
2023-03-16T10:45:49.940Z,102087.78
2023-03-16T10:48:21.050Z,102086.22
2023-03-16T10:50:55.077Z,102096.84
2023-03-16T10:53:26.528Z,102082.13
2023-03-16T10:55:59.775Z,102092.78
2023-03-16T10:58:30.837Z,102082.41
2023-03-16T11:00:58.286Z,102083.59
2023-03-16T11:03:32.394Z,102082.88
2023-03-16T11:06:04.446Z,102082.16
2023-03-16T11:08:38.781Z,102069.00
2023-03-16T11:11:14.758Z,102071.09
2023-03-16T11:13:47.091Z,102069.50
2023-03-16T11:16:38.197Z,102068.75
2023-03-16T11:19:33.653Z,102066.19
2023-03-16T11:22:17.444Z,102041.88
2023-03-16T11:25:03.065Z,102056.28
2023-03-16T11:27:49.656Z,102049.53
2023-03-16T11:30:31.374Z,102052.31
2023-03-16T11:33:00.501Z,102059.47
2023-03-16T11:36:13.838Z,102050.97
2023-03-16T11:39:19.260Z,102055.47
2023-03-16T11:42:10.078Z,102052.13
2023-03-16T11:44:48.843Z,102029.53
2023-03-16T11:47:51.749Z,102046.25
2023-03-16T11:50:25.389Z,102040.28
2023-03-16T11:53:38.307Z,102039.50
2023-03-16T11:56:22.378Z,102036.94
2023-03-16T11:59:18.224Z,102029.22
2023-03-16T12:02:29.157Z,102027.69
2023-03-16T12:05:44.336Z,102028.69
2023-03-16T12:08:30.625Z,102024.34
2023-03-16T12:11:05.960Z,102015.69
2023-03-16T12:14:09.113Z,102017.56
2023-03-16T12:17:08.333Z,102018.50
2023-03-16T12:19:49.351Z,102012.56
2023-03-16T12:22:30.906Z,101997.84
2023-03-16T12:24:57.863Z,102005.06
2023-03-16T12:27:33.761Z,101993.91
2023-03-16T12:31:14.154Z,101994.03
2023-03-16T12:33:59.818Z,101987.28
2023-03-16T12:36:49.034Z,101981.28
2023-03-16T12:39:46.818Z,101977.91
2023-03-16T12:42:37.802Z,101986.88
2023-03-16T12:45:41.119Z,101977.44
2023-03-16T12:48:38.893Z,101991.38
2023-03-16T12:51:06.249Z,101972.34
2023-03-16T12:53:47.706Z,101979.44
2023-03-16T12:56:28.246Z,101968.25
2023-03-16T12:58:58.935Z,101970.13
2023-03-16T13:01:45.933Z,101953.66
2023-03-16T13:04:19.359Z,101968.72
2023-03-16T13:07:01.062Z,101965.41
2023-03-16T13:09:31.996Z,101961.22
2023-03-16T13:12:04.949Z,101956.09
2023-03-16T13:14:44.661Z,101952.63
2023-03-16T13:17:17.595Z,101952.69
2023-03-16T13:20:06.798Z,101945.63
2023-03-16T13:22:51.198Z,101952.75
2023-03-16T13:25:39.697Z,101955.50
2023-03-16T13:28:12.998Z,101942.44
2023-03-16T13:30:48.635Z,101957.41
2023-03-16T13:33:31.398Z,101948.75
2023-03-16T13:36:00.238Z,101946.13
2023-03-16T13:38:28.653Z,101959.31
2023-03-16T13:41:18.787Z,101955.84
2023-03-16T13:43:46.811Z,101956.78
2023-03-16T13:46:20.514Z,101955.91
2023-03-16T13:48:48.872Z,101954.16
2023-03-16T13:51:22.638Z,101948.09
2023-03-16T13:53:50.389Z,101943.78
2023-03-16T13:56:26.797Z,101938.56
2023-03-16T13:58:54.555Z,101928.13
2023-03-16T14:01:32.680Z,101923.78
2023-03-16T14:04:08.425Z,101922.03
2023-03-16T14:06:35.839Z,101915.88
2023-03-16T14:09:06.648Z,101912.31
2023-03-16T14:11:33.735Z,101889.56
2023-03-16T14:14:02.008Z,101902.75
2023-03-16T14:16:31.912Z,101914.88
2023-03-16T14:19:17.021Z,101907.88
2023-03-16T14:21:46.128Z,101921.69
2023-03-16T14:24:38.212Z,101920.72
2023-03-16T14:27:23.200Z,101919.78
2023-03-16T14:30:00.565Z,101919.75
2023-03-16T14:32:32.307Z,101910.19
2023-03-16T14:35:18.251Z,101904.97
2023-03-16T14:37:45.250Z,101897.16
2023-03-16T14:40:32.161Z,101881.44
2023-03-16T14:43:04.341Z,101884.97
2023-03-16T14:45:37.397Z,101884.09
2023-03-16T14:48:17.030Z,101883.25
2023-03-16T14:50:44.482Z,101881.53
2023-03-16T14:53:11.796Z,101870.19
2023-03-16T14:55:38.898Z,101872.81
2023-03-16T14:58:05.801Z,101874.53
2023-03-16T15:00:42.704Z,101871.94
2023-03-16T15:03:17.718Z,101875.41
2023-03-16T15:05:49.522Z,101875.34
2023-03-16T15:08:26.595Z,101868.41
2023-03-16T15:10:55.748Z,101868.34
2023-03-16T15:13:42.458Z,101860.50
2023-03-16T15:16:14.337Z,101863.09
2023-03-16T15:18:42.640Z,101863.91
2023-03-16T15:21:20.876Z,101864.78
2023-03-16T15:23:48.370Z,101849.97
2023-03-16T15:26:22.376Z,101842.97
2023-03-16T15:28:51.074Z,101853.38
2023-03-16T15:31:17.981Z,101854.25
2023-03-16T15:33:45.792Z,101851.59
2023-03-16T15:36:21.233Z,101852.41
2023-03-16T15:38:52.817Z,101832.31
2023-03-16T15:41:19.808Z,101847.88
2023-03-16T15:43:47.467Z,101838.19
2023-03-16T15:46:15.019Z,101834.56
2023-03-16T15:48:42.461Z,101829.41
2023-03-16T15:51:25.634Z,101837.19
2023-03-16T15:54:00.118Z,101838.03
2023-03-16T15:56:32.365Z,101833.72
2023-03-16T15:59:04.905Z,101816.28
2023-03-16T16:01:45.078Z,101829.22
2023-03-16T16:04:19.855Z,101827.31
2023-03-16T16:06:48.376Z,101822.00
2023-03-16T16:09:15.744Z,101831.50
2023-03-16T16:11:42.858Z,101834.88
2023-03-16T16:14:15.594Z,101823.47
2023-03-16T16:16:45.819Z,101828.56
2023-03-16T16:19:16.534Z,101820.59
2023-03-16T16:21:43.975Z,101823.09
2023-03-16T16:24:11.478Z,101826.59
2023-03-16T16:26:53.212Z,101829.94
2023-03-16T16:29:30.659Z,101829.00
2023-03-16T16:31:57.816Z,101821.94
2023-03-16T16:34:25.658Z,101809.66
2023-03-16T16:36:54.690Z,101815.69
2023-03-16T16:39:22.269Z,101809.53
2023-03-16T16:41:51.783Z,101812.94
2023-03-16T16:44:23.569Z,101808.56
2023-03-16T16:46:51.320Z,101811.97
2023-03-16T16:49:28.272Z,101805.91
2023-03-16T16:51:55.379Z,101805.84
2023-03-16T16:54:26.196Z,101809.38
2023-03-16T16:56:55.553Z,101812.84
2023-03-16T16:59:31.257Z,101804.84
2023-03-16T17:02:00.714Z,101811.97
2023-03-16T17:04:29.857Z,101824.94
2023-03-16T17:07:00.817Z,101811.88
2023-03-16T17:09:30.057Z,101826.59
2023-03-16T17:12:00.968Z,101817.00
2023-03-16T17:14:28.317Z,101810.75
2023-03-16T17:16:55.779Z,101817.63
2023-03-16T17:19:27.178Z,101817.56
2023-03-16T17:21:57.350Z,101816.69
2023-03-16T17:24:24.783Z,101816.59
2023-03-16T17:26:57.533Z,101820.91
2023-03-16T17:29:33.620Z,101819.94
2023-03-16T17:32:03.584Z,101826.78
2023-03-16T17:34:33.138Z,101813.72
2023-03-16T17:37:00.228Z,101819.69
2023-03-16T17:39:33.737Z,101811.81
2023-03-16T17:42:18.618Z,101814.28
2023-03-16T17:44:48.952Z,101815.94
2023-03-16T17:47:26.336Z,101805.28
2023-03-16T17:49:53.875Z,101799.09
2023-03-16T17:52:23.946Z,101798.22
2023-03-16T17:54:52.675Z,101797.28
2023-03-16T17:57:24.836Z,101796.28
2023-03-16T17:59:52.156Z,101785.63
2023-03-16T18:02:49.901Z,101789.06
2023-03-16T18:05:25.036Z,101791.59
2023-03-16T18:07:52.710Z,101783.66
2023-03-16T18:10:29.420Z,101780.91
2023-03-16T18:13:05.387Z,101777.19
2023-03-16T18:15:36.454Z,101778.09
2023-03-16T18:18:07.189Z,101781.44
2023-03-16T18:20:36.551Z,101781.31
2023-03-16T18:23:16.452Z,101784.72
2023-03-16T18:25:43.682Z,101790.63
2023-03-16T18:28:13.843Z,101777.56
2023-03-16T18:30:47.501Z,101779.13
2023-03-16T18:33:23.488Z,101774.69
2023-03-16T18:35:53.199Z,101777.19
2023-03-16T18:38:36.104Z,101787.38
2023-03-16T18:41:20.873Z,101761.03
2023-03-16T18:43:48.470Z,101783.00
2023-03-16T18:46:25.901Z,101776.84
2023-03-16T18:48:56.889Z,101776.75
2023-03-16T18:51:24.133Z,101794.00
2023-03-16T18:53:51.277Z,101779.25
2023-03-16T18:56:22.710Z,101782.69
2023-03-16T18:58:51.170Z,101784.34
2023-03-16T19:01:28.194Z,101784.34
2023-03-16T19:03:56.388Z,101782.63
2023-03-16T19:06:31.496Z,101780.00
2023-03-16T19:09:14.476Z,101774.66
2023-03-16T19:11:43.909Z,101783.34
2023-03-16T19:14:24.436Z,101781.47
2023-03-16T19:16:53.463Z,101779.66
2023-03-16T19:19:22.637Z,101778.00
2023-03-16T19:21:53.713Z,101773.66
2023-03-16T19:24:33.281Z,101775.22
2023-03-16T19:27:01.081Z,101769.03
2023-03-16T19:29:36.127Z,101749.03
2023-03-16T19:32:03.159Z,101749.00
2023-03-16T19:34:30.129Z,101735.88
2023-03-16T19:36:57.002Z,101742.69
2023-03-16T19:39:23.943Z,101732.91
2023-03-16T19:41:57.505Z,101752.88
2023-03-16T19:44:27.503Z,101750.97
2023-03-16T19:46:55.072Z,101755.44
2023-03-16T19:49:27.382Z,101743.84
2023-03-16T19:51:55.761Z,101755.22
2023-03-16T19:54:32.476Z,101758.81
2023-03-16T19:57:07.109Z,101764.03
2023-03-16T19:59:35.197Z,101738.84
2023-03-16T20:02:02.378Z,101757.25
2023-03-16T20:04:29.324Z,101747.75
2023-03-16T20:06:56.230Z,101758.13
2023-03-16T20:09:23.156Z,101755.53
2023-03-16T20:11:50.289Z,101754.69
2023-03-16T20:14:33.093Z,101741.75
2023-03-16T20:17:00.949Z,101744.41
2023-03-16T20:19:28.544Z,101751.28
2023-03-16T20:21:55.461Z,101756.50
2023-03-16T20:24:22.356Z,101758.22
2023-03-16T20:26:51.503Z,101752.88
2023-03-16T20:29:31.226Z,101758.19
2023-03-16T20:31:58.977Z,101749.50
2023-03-16T20:34:29.501Z,101754.66
2023-03-16T20:36:56.849Z,101753.72
2023-03-16T20:39:24.199Z,101752.00
2023-03-16T20:41:52.590Z,101760.72
2023-03-16T20:44:21.815Z,101758.06
2023-03-16T20:46:48.766Z,101757.28
2023-03-16T20:49:21.882Z,101748.63
2023-03-16T20:51:49.949Z,101752.06
2023-03-16T20:54:17.682Z,101744.19
2023-03-16T20:56:44.804Z,101737.34
2023-03-16T20:59:23.793Z,101733.91
2023-03-16T21:01:51.840Z,101729.63
2023-03-16T21:04:27.966Z,101726.03
2023-03-16T21:06:55.972Z,101727.03
2023-03-16T21:09:22.901Z,101727.06
2023-03-16T21:11:49.955Z,101717.63
2023-03-16T21:14:21.952Z,101713.31
2023-03-16T21:16:49.741Z,101696.91
2023-03-16T21:19:23.093Z,101688.28
2023-03-16T21:21:50.799Z,101681.28
2023-03-16T21:24:17.701Z,101683.94
2023-03-16T21:26:47.394Z,101676.09
2023-03-16T21:29:23.732Z,101672.56
2023-03-16T21:31:51.783Z,101666.44
2023-03-16T21:34:25.348Z,101662.97
2023-03-16T21:36:52.360Z,101652.53
2023-03-16T21:39:23.719Z,101646.38
2023-03-16T21:41:51.132Z,101652.38
2023-03-16T21:44:18.460Z,101655.75
2023-03-16T21:46:47.161Z,101661.72
2023-03-16T21:49:15.704Z,101654.72
2023-03-16T21:51:43.133Z,101652.88
2023-03-16T21:54:19.420Z,101663.19
2023-03-16T21:56:47.755Z,101659.66
2023-03-16T21:59:14.652Z,101656.97
2023-03-16T22:01:58.335Z,101663.78
2023-03-16T22:04:27.540Z,101658.53
2023-03-16T22:06:54.422Z,101651.56
2023-03-16T22:09:22.653Z,101644.66
2023-03-16T22:11:49.743Z,101647.22
2023-03-16T22:14:16.631Z,101630.88
2023-03-16T22:16:43.735Z,101623.03
2023-03-16T22:19:14.392Z,101633.41
2023-03-16T22:21:43.866Z,101617.72
2023-03-16T22:24:20.999Z,101620.25
2023-03-16T22:26:50.040Z,101608.06
2023-03-16T22:29:28.194Z,101609.75
2023-03-16T22:32:01.094Z,101607.03
2023-03-16T22:34:48.808Z,101606.13
2023-03-16T22:37:21.037Z,101600.84
2023-03-16T22:39:49.571Z,101606.81
2023-03-16T22:42:38.111Z,101610.19
2023-03-16T22:45:22.673Z,101626.56
2023-03-16T22:47:49.613Z,101617.06
2023-03-16T22:50:19.245Z,101611.84
2023-03-16T22:52:50.086Z,101607.53
2023-03-16T22:55:22.702Z,101607.44
2023-03-16T22:58:12.026Z,101606.47
2023-03-16T23:00:39.511Z,101596.09
2023-03-16T23:03:18.567Z,101583.09
2023-03-16T23:05:46.273Z,101578.59
2023-03-16T23:08:17.564Z,101573.47
2023-03-16T23:10:45.324Z,101558.00
2023-03-16T23:13:16.661Z,101561.47
2023-03-16T23:15:47.474Z,101570.13
2023-03-16T23:18:25.191Z,101569.34
2023-03-16T23:20:52.514Z,101584.91
2023-03-16T23:23:19.749Z,101589.19
2023-03-16T23:25:48.003Z,101585.69
2023-03-16T23:28:20.344Z,101599.53
2023-03-16T23:30:47.573Z,101583.97
2023-03-16T23:33:15.243Z,101583.09
2023-03-16T23:35:46.293Z,101577.00
2023-03-16T23:38:13.445Z,101576.19
2023-03-16T23:40:40.339Z,101581.31
2023-03-16T23:43:08.421Z,101572.50
2023-03-16T23:45:42.447Z,101573.47
2023-03-16T23:48:16.786Z,101569.94
2023-03-16T23:50:45.538Z,101552.56
2023-03-16T23:53:16.030Z,101545.59
2023-03-16T23:55:43.805Z,101538.59
2023-03-16T23:58:11.908Z,101536.00
